SBOSBO ZTH / LGZA
Speedbird OnlineSpeedbird Online ZTH / LGZA

Zakynthos International Airport "Dionysios Solomos"
09:27 19.9°C

Location Zakynthos, Greece
Latitude: 37.7509
Longitude: 20.8843
Web Airport Website | Wikipedia
Altitude 5 Meter / 15 Feet
Distance 2,231 KM / 1,386 Miles
from London.
Time Zone UTC +3 hours (Europe/Athens)
Codes IATA: ZTH
ICAO: LGZA
Currency £1 equals EUR 1.15
Runways
RunwayLength (m)Surface
162228Asphalt
342228Asphalt
Radio
TypeDescriptionFrequency
A/GRDO563.7
TWRTWR125.425
Live ATC
METAR LGZA 060550Z 01008KT 9999 FEW020 20/10 Q1024
TAF TAF LGZA 060500Z 0606/0615 VRB05KT 9999 FEW018 TEMPO 0606/0612 03010KT BECMG 0612/0614 32010KT
Weather As Of 06 Oct 2022 09:23
Description Few clouds
Wind 15 km/h from North (10°)
Cloud Cover 20%
Precipitation Rain: none, Snow: none
Sunrise 07:36
Sunset 19:12
Rotations During the last 90 days there were
26 flights from LHR
26 flights to LHR


© 2017-2022 Speedbird Online